createdAt,value
2017-11-25T00:00:48.388Z,1013.60
2017-11-25T00:01:50.267Z,1013.63
2017-11-25T00:02:52.151Z,1013.60
2017-11-25T00:03:53.969Z,1013.56
2017-11-25T00:04:55.789Z,1013.57
2017-11-25T00:05:57.673Z,1013.54
2017-11-25T00:06:59.555Z,1013.53
2017-11-25T00:08:01.442Z,1013.53
2017-11-25T00:09:15.595Z,1013.55
2017-11-25T00:10:17.474Z,1013.59
2017-11-25T00:11:19.357Z,1013.64
2017-11-25T00:12:21.236Z,1013.66
2017-11-25T00:13:23.058Z,1013.68
2017-11-25T00:14:24.876Z,1013.70
2017-11-25T00:15:26.760Z,1013.70
2017-11-25T00:16:28.647Z,1013.74
2017-11-25T00:17:30.529Z,1013.74
2017-11-25T00:18:44.686Z,1013.72
2017-11-25T00:19:46.557Z,1013.74
2017-11-25T00:20:48.438Z,1013.67
2017-11-25T00:21:50.317Z,1013.61
2017-11-25T00:22:52.133Z,1013.60
2017-11-25T00:23:53.950Z,1013.56
2017-11-25T00:24:55.834Z,1013.60
2017-11-25T00:25:57.715Z,1013.62
2017-11-25T00:26:59.599Z,1013.59
2017-11-25T00:28:13.750Z,1013.58
2017-11-25T00:29:15.630Z,1013.52
2017-11-25T00:30:17.511Z,1013.48
2017-11-25T00:31:19.394Z,1013.45
2017-11-25T00:32:21.215Z,1013.44
2017-11-25T00:33:23.030Z,1013.44
2017-11-25T00:34:24.914Z,1013.44
2017-11-25T00:35:26.794Z,1013.42
2017-11-25T00:36:28.676Z,1013.46
2017-11-25T00:37:42.833Z,1013.45
2017-11-25T00:38:44.708Z,1013.38
2017-11-25T00:39:46.589Z,1013.38
2017-11-25T00:40:48.471Z,1013.30
2017-11-25T00:41:50.289Z,1013.33
2017-11-25T00:42:52.109Z,1013.36
2017-11-25T00:43:54.000Z,1013.39
2017-11-25T00:44:55.879Z,1013.36
2017-11-25T00:45:57.767Z,1013.32
2017-11-25T00:47:11.964Z,1013.32
2017-11-25T00:48:13.843Z,1013.31
2017-11-25T00:49:15.721Z,1013.33
2017-11-25T00:50:17.610Z,1013.37
2017-11-25T00:51:19.419Z,1013.38
2017-11-25T00:52:21.239Z,1013.41
2017-11-25T00:53:23.122Z,1013.39
2017-11-25T00:54:25.005Z,1013.38
2017-11-25T00:55:26.888Z,1013.37
2017-11-25T00:56:41.044Z,1013.38
2017-11-25T00:57:42.920Z,1013.43
2017-11-25T00:58:44.805Z,1013.40
2017-11-25T00:59:46.683Z,1013.40
2017-11-25T01:00:48.500Z,1013.38
2017-11-25T01:01:50.318Z,1013.35
2017-11-25T01:02:52.204Z,1013.31
2017-11-25T01:03:54.080Z,1013.30
2017-11-25T01:04:55.963Z,1013.28
2017-11-25T01:06:10.118Z,1013.27
2017-11-25T01:07:11.996Z,1013.25
2017-11-25T01:08:13.876Z,1013.23
2017-11-25T01:09:15.761Z,1013.27
2017-11-25T01:10:17.579Z,1013.22
2017-11-25T01:11:19.394Z,1013.18
2017-11-25T01:12:21.277Z,1013.16
2017-11-25T01:13:23.161Z,1013.09
2017-11-25T01:14:25.041Z,1013.11
2017-11-25T01:15:39.203Z,1013.07
2017-11-25T01:16:41.071Z,1013.04
2017-11-25T01:17:42.951Z,1013.02
2017-11-25T01:18:44.832Z,1013.05
2017-11-25T01:19:46.650Z,1013.01
2017-11-25T01:20:48.467Z,1013.01
2017-11-25T01:21:50.349Z,1013.04
2017-11-25T01:22:52.236Z,1013.04
2017-11-25T01:23:54.120Z,1013.08
2017-11-25T01:25:08.272Z,1013.08
2017-11-25T01:26:10.151Z,1013.06
2017-11-25T01:27:12.036Z,1013.07
2017-11-25T01:28:13.915Z,1013.09
2017-11-25T01:29:15.734Z,1013.02
2017-11-25T01:30:17.550Z,1013.02
2017-11-25T01:31:19.434Z,1013.01
2017-11-25T01:32:21.317Z,1013.01
2017-11-25T01:33:23.200Z,1013.00
2017-11-25T01:34:37.350Z,1012.96
2017-11-25T01:35:39.228Z,1012.97
2017-11-25T01:36:41.109Z,1012.93
2017-11-25T01:37:42.991Z,1012.92
2017-11-25T01:38:44.812Z,1012.88
2017-11-25T01:39:46.628Z,1012.80
2017-11-25T01:40:48.511Z,1012.76
2017-11-25T01:41:50.392Z,1012.74
2017-11-25T01:42:52.282Z,1012.75
2017-11-25T01:44:06.427Z,1012.76
2017-11-25T01:45:08.305Z,1012.76
2017-11-25T01:46:10.189Z,1012.81
2017-11-25T01:47:12.070Z,1012.91
2017-11-25T01:48:13.889Z,1012.84
2017-11-25T01:49:15.707Z,1012.86
2017-11-25T01:50:17.588Z,1012.83
2017-11-25T01:51:19.476Z,1012.86
2017-11-25T01:52:21.355Z,1012.85
2017-11-25T01:53:35.512Z,1012.76
2017-11-25T01:54:37.385Z,1012.79
2017-11-25T01:55:39.268Z,1012.70
2017-11-25T01:56:41.156Z,1012.71
2017-11-25T01:57:42.968Z,1012.71
2017-11-25T01:58:44.788Z,1012.73
2017-11-25T01:59:46.672Z,1012.75
2017-11-25T02:00:48.546Z,1012.71
2017-11-25T02:01:50.429Z,1012.69
2017-11-25T02:03:04.577Z,1012.63
2017-11-25T02:04:06.456Z,1012.56
2017-11-25T02:05:08.337Z,1012.54
2017-11-25T02:06:10.217Z,1012.50
2017-11-25T02:07:12.032Z,1012.51
2017-11-25T02:08:13.845Z,1012.49
2017-11-25T02:09:15.725Z,1012.45
2017-11-25T02:10:17.604Z,1012.44
2017-11-25T02:11:19.485Z,1012.42
2017-11-25T02:12:33.635Z,1012.40
2017-11-25T02:13:35.512Z,1012.38
2017-11-25T02:14:37.390Z,1012.30
2017-11-25T02:15:39.269Z,1012.31
2017-11-25T02:16:41.089Z,1012.31
2017-11-25T02:17:42.903Z,1012.27
2017-11-25T02:18:44.784Z,1012.32
2017-11-25T02:19:46.661Z,1012.24
2017-11-25T02:20:48.542Z,1012.21
2017-11-25T02:22:02.743Z,1012.23
2017-11-25T02:23:04.626Z,1012.26
2017-11-25T02:24:06.509Z,1012.29
2017-11-25T02:25:08.390Z,1012.32
2017-11-25T02:26:10.209Z,1012.34
2017-11-25T02:27:12.028Z,1012.35
2017-11-25T02:28:13.910Z,1012.37
2017-11-25T02:29:15.802Z,1012.32
2017-11-25T02:30:17.675Z,1012.27
2017-11-25T02:31:31.878Z,1012.24
2017-11-25T02:32:33.761Z,1012.24
2017-11-25T02:33:35.641Z,1012.28
2017-11-25T02:34:37.523Z,1012.27
2017-11-25T02:35:39.341Z,1012.23
2017-11-25T02:36:41.156Z,1012.20
2017-11-25T02:37:43.039Z,1012.20
2017-11-25T02:38:44.923Z,1012.15
2017-11-25T02:39:46.805Z,1012.12
2017-11-25T02:41:00.952Z,1012.11
2017-11-25T02:42:02.837Z,1012.12
2017-11-25T02:43:04.722Z,1012.11
2017-11-25T02:44:06.638Z,1012.10
2017-11-25T02:45:08.462Z,1012.08
2017-11-25T02:46:10.277Z,1012.09
2017-11-25T02:47:12.161Z,1012.03
2017-11-25T02:48:14.044Z,1012.08
2017-11-25T02:49:15.945Z,1012.00
2017-11-25T02:50:30.077Z,1012.01
2017-11-25T02:51:31.956Z,1012.02
2017-11-25T02:52:33.839Z,1012.07
2017-11-25T02:53:35.727Z,1012.08
2017-11-25T02:54:37.555Z,1012.12
2017-11-25T02:55:39.357Z,1012.14
2017-11-25T02:56:41.243Z,1012.10
2017-11-25T02:57:43.127Z,1012.08
2017-11-25T02:58:45.007Z,1011.96
2017-11-25T02:59:59.160Z,1011.95
2017-11-25T03:01:01.042Z,1011.91
2017-11-25T03:02:02.927Z,1011.89
2017-11-25T03:03:04.810Z,1011.91
2017-11-25T03:04:06.626Z,1011.92
2017-11-25T03:05:08.448Z,1011.89
2017-11-25T03:06:10.327Z,1011.81
2017-11-25T03:07:12.212Z,1011.86
2017-11-25T03:08:14.093Z,1011.81
2017-11-25T03:09:28.244Z,1011.78
2017-11-25T03:10:30.134Z,1011.79
2017-11-25T03:11:32.014Z,1011.75
2017-11-25T03:12:33.896Z,1011.75
2017-11-25T03:13:35.716Z,1011.74
2017-11-25T03:14:37.535Z,1011.70
2017-11-25T03:15:39.418Z,1011.70
2017-11-25T03:16:41.302Z,1011.69
2017-11-25T03:17:43.184Z,1011.63
2017-11-25T03:18:57.341Z,1011.65
2017-11-25T03:19:59.217Z,1011.66
2017-11-25T03:21:01.105Z,1011.69
2017-11-25T03:22:02.987Z,1011.71
2017-11-25T03:23:04.807Z,1011.74
2017-11-25T03:24:06.624Z,1011.71
2017-11-25T03:25:08.505Z,1011.68
2017-11-25T03:26:10.389Z,1011.70
2017-11-25T03:27:12.276Z,1011.69
2017-11-25T03:28:26.425Z,1011.67
2017-11-25T03:29:28.308Z,1011.65
2017-11-25T03:30:30.194Z,1011.62
2017-11-25T03:31:32.074Z,1011.60
2017-11-25T03:32:33.894Z,1011.58
2017-11-25T03:33:35.713Z,1011.53
2017-11-25T03:34:37.597Z,1011.50
2017-11-25T03:35:39.481Z,1011.44
2017-11-25T03:36:41.361Z,1011.39
2017-11-25T03:37:55.512Z,1011.36
2017-11-25T03:38:57.393Z,1011.35
2017-11-25T03:39:59.278Z,1011.28
2017-11-25T03:41:01.163Z,1011.26
2017-11-25T03:42:02.984Z,1011.28
2017-11-25T03:43:04.801Z,1011.30
2017-11-25T03:44:06.680Z,1011.35
2017-11-25T03:45:08.565Z,1011.34
2017-11-25T03:46:10.445Z,1011.38
2017-11-25T03:47:24.598Z,1011.41
2017-11-25T03:48:26.479Z,1011.40
2017-11-25T03:49:28.364Z,1011.47
2017-11-25T03:50:30.247Z,1011.45
2017-11-25T03:51:32.066Z,1011.44
2017-11-25T03:52:33.884Z,1011.45
2017-11-25T03:53:35.765Z,1011.48
2017-11-25T03:54:37.650Z,1011.51
2017-11-25T03:55:39.536Z,1011.47
2017-11-25T03:56:53.689Z,1011.51
2017-11-25T03:57:55.572Z,1011.47
2017-11-25T03:58:57.457Z,1011.38
2017-11-25T03:59:59.337Z,1011.34
2017-11-25T04:01:01.160Z,1011.33
2017-11-25T04:02:02.977Z,1011.31
2017-11-25T04:03:04.863Z,1011.27
2017-11-25T04:04:06.762Z,1011.26
2017-11-25T04:05:08.629Z,1011.15
2017-11-25T04:06:22.782Z,1011.07
2017-11-25T04:07:24.663Z,1011.15
2017-11-25T04:08:26.555Z,1011.20
2017-11-25T04:09:28.438Z,1011.25
2017-11-25T04:10:30.256Z,1011.27
2017-11-25T04:11:32.079Z,1011.27
2017-11-25T04:12:33.983Z,1011.28
2017-11-25T04:13:35.849Z,1011.26
2017-11-25T04:14:37.730Z,1011.25
2017-11-25T04:15:51.935Z,1011.19
2017-11-25T04:16:53.819Z,1011.24
2017-11-25T04:17:55.700Z,1011.28
2017-11-25T04:18:57.585Z,1011.21
2017-11-25T04:19:59.405Z,1011.20
2017-11-25T04:21:01.225Z,1011.11
2017-11-25T04:22:03.108Z,1011.11
2017-11-25T04:23:04.993Z,1011.05
2017-11-25T04:24:06.872Z,1010.93
2017-11-25T04:25:21.075Z,1010.85
2017-11-25T04:26:22.957Z,1010.80
2017-11-25T04:27:24.840Z,1010.73
2017-11-25T04:28:26.731Z,1010.65
2017-11-25T04:29:28.540Z,1010.69
2017-11-25T04:30:30.359Z,1010.65
2017-11-25T04:31:32.242Z,1010.69
2017-11-25T04:32:34.126Z,1010.71
2017-11-25T04:33:36.008Z,1010.73
2017-11-25T04:34:50.159Z,1010.69
2017-11-25T04:35:52.039Z,1010.64
2017-11-25T04:36:53.926Z,1010.57
2017-11-25T04:37:55.806Z,1010.48
2017-11-25T04:38:57.628Z,1010.48
2017-11-25T04:39:59.445Z,1010.36
2017-11-25T04:41:01.328Z,1010.34
2017-11-25T04:42:03.302Z,1010.28
2017-11-25T04:43:05.146Z,1010.36
2017-11-25T04:44:19.299Z,1010.30
2017-11-25T04:45:21.179Z,1010.37
2017-11-25T04:46:23.063Z,1010.39
2017-11-25T04:47:24.944Z,1010.41
2017-11-25T04:48:26.765Z,1010.33
2017-11-25T04:49:28.578Z,1010.27
2017-11-25T04:50:30.460Z,1010.25
2017-11-25T04:51:32.342Z,1010.19
2017-11-25T04:52:34.222Z,1010.15
2017-11-25T04:53:48.379Z,1010.18
2017-11-25T04:54:50.255Z,1010.18
2017-11-25T04:55:52.139Z,1010.18
2017-11-25T04:56:54.019Z,1010.29
2017-11-25T04:57:55.838Z,1010.26
2017-11-25T04:58:57.654Z,1010.34
2017-11-25T04:59:59.540Z,1010.28
2017-11-25T05:01:01.423Z,1010.24
2017-11-25T05:02:03.308Z,1010.24
2017-11-25T05:03:17.453Z,1010.22
2017-11-25T05:04:19.336Z,1010.25
2017-11-25T05:05:21.220Z,1010.20
2017-11-25T05:06:23.108Z,1010.15
2017-11-25T05:07:24.920Z,1010.09
2017-11-25T05:08:26.739Z,1010.03
2017-11-25T05:09:28.581Z,1010.03
2017-11-25T05:10:30.461Z,1010.03
2017-11-25T05:11:32.340Z,1009.99
2017-11-25T05:12:46.490Z,1010.07
2017-11-25T05:13:48.378Z,1010.06
2017-11-25T05:14:50.251Z,1010.01
2017-11-25T05:15:52.132Z,1009.95
2017-11-25T05:16:53.953Z,1009.92
2017-11-25T05:17:55.769Z,1009.99
2017-11-25T05:18:57.653Z,1010.03
2017-11-25T05:19:59.536Z,1010.14
2017-11-25T05:21:01.415Z,1010.19
2017-11-25T05:22:15.567Z,1010.14
2017-11-25T05:23:17.447Z,1010.14
2017-11-25T05:24:19.328Z,1010.06
2017-11-25T05:25:21.210Z,1010.01
2017-11-25T05:26:23.028Z,1009.97
2017-11-25T05:27:24.851Z,1009.97
2017-11-25T05:28:26.732Z,1010.01
2017-11-25T05:29:28.613Z,1009.97
2017-11-25T05:30:30.492Z,1010.01
2017-11-25T05:31:44.643Z,1010.04
2017-11-25T05:32:46.551Z,1010.03
2017-11-25T05:33:48.435Z,1010.07
2017-11-25T05:34:50.313Z,1010.04
2017-11-25T05:35:52.133Z,1009.97
2017-11-25T05:36:53.948Z,1009.98
2017-11-25T05:37:55.831Z,1009.95
2017-11-25T05:38:57.714Z,1009.96
2017-11-25T05:39:59.592Z,1009.94
2017-11-25T05:41:13.791Z,1009.92
2017-11-25T05:42:15.674Z,1009.89
2017-11-25T05:43:17.561Z,1009.92
2017-11-25T05:44:19.435Z,1009.90
2017-11-25T05:45:21.252Z,1009.84
2017-11-25T05:46:23.073Z,1009.81
2017-11-25T05:47:24.952Z,1009.77
2017-11-25T05:48:26.833Z,1009.83
2017-11-25T05:49:28.712Z,1009.79
2017-11-25T05:50:42.866Z,1009.77
2017-11-25T05:51:44.745Z,1009.79
2017-11-25T05:52:46.627Z,1009.83
2017-11-25T05:53:48.506Z,1009.86
2017-11-25T05:54:50.325Z,1009.82
2017-11-25T05:55:52.143Z,1009.86
2017-11-25T05:56:54.026Z,1009.77
2017-11-25T05:57:55.909Z,1009.69
2017-11-25T05:58:57.792Z,1009.71
2017-11-25T06:00:11.991Z,1009.70
2017-11-25T06:01:13.869Z,1009.65
2017-11-25T06:02:15.751Z,1009.70
2017-11-25T06:03:17.630Z,1009.66
2017-11-25T06:04:19.448Z,1009.61
2017-11-25T06:05:21.265Z,1009.51
2017-11-25T06:06:23.150Z,1009.46
2017-11-25T06:07:25.034Z,1009.36
2017-11-25T06:08:26.915Z,1009.38
2017-11-25T06:09:41.066Z,1009.36
2017-11-25T06:10:42.946Z,1009.36
2017-11-25T06:11:44.832Z,1009.34
2017-11-25T06:12:46.712Z,1009.33
2017-11-25T06:13:48.533Z,1009.27
2017-11-25T06:14:50.359Z,1009.32
2017-11-25T06:15:52.238Z,1009.32
2017-11-25T06:16:54.121Z,1009.35
2017-11-25T06:17:56.002Z,1009.33
2017-11-25T06:19:10.155Z,1009.34
2017-11-25T06:20:12.034Z,1009.29
2017-11-25T06:21:13.925Z,1009.33
2017-11-25T06:22:15.800Z,1009.30
2017-11-25T06:23:17.618Z,1009.26
2017-11-25T06:24:19.435Z,1009.37
2017-11-25T06:25:21.319Z,1009.29
2017-11-25T06:26:23.202Z,1009.35
2017-11-25T06:27:25.090Z,1009.34
2017-11-25T06:28:39.235Z,1009.42
2017-11-25T06:29:41.116Z,1009.42
2017-11-25T06:30:43.003Z,1009.39
2017-11-25T06:31:44.884Z,1009.42
2017-11-25T06:32:46.706Z,1009.42
2017-11-25T06:33:48.523Z,1009.40
2017-11-25T06:34:50.406Z,1009.29
2017-11-25T06:35:52.289Z,1009.27
2017-11-25T06:36:54.171Z,1009.29
2017-11-25T06:38:08.320Z,1009.17
2017-11-25T06:39:10.205Z,1009.23
2017-11-25T06:40:12.090Z,1009.20
2017-11-25T06:41:13.983Z,1009.17
2017-11-25T06:42:15.801Z,1009.15
2017-11-25T06:43:17.624Z,1009.03
2017-11-25T06:44:19.505Z,1009.07
2017-11-25T06:45:21.391Z,1008.94
2017-11-25T06:46:23.273Z,1008.95
2017-11-25T06:47:37.430Z,1008.91
2017-11-25T06:48:39.315Z,1008.81
2017-11-25T06:49:41.206Z,1008.73
2017-11-25T06:50:43.082Z,1008.65
2017-11-25T06:51:44.906Z,1008.61
2017-11-25T06:52:46.726Z,1008.53
2017-11-25T06:53:48.613Z,1008.43
2017-11-25T06:54:50.498Z,1008.39
2017-11-25T06:55:52.381Z,1008.34
2017-11-25T06:57:06.539Z,1008.32
2017-11-25T06:58:08.421Z,1008.39
2017-11-25T06:59:10.306Z,1008.40
2017-11-25T07:00:12.191Z,1008.39
2017-11-25T07:01:14.014Z,1008.37
2017-11-25T07:02:15.834Z,1008.35
2017-11-25T07:03:17.733Z,1008.39
2017-11-25T07:04:19.611Z,1008.35
2017-11-25T07:05:21.499Z,1008.37
2017-11-25T07:06:35.657Z,1008.42
2017-11-25T07:07:37.536Z,1008.39
2017-11-25T07:08:39.423Z,1008.40
2017-11-25T07:09:41.307Z,1008.39
2017-11-25T07:10:43.132Z,1008.38
2017-11-25T07:11:44.956Z,1008.34
2017-11-25T07:12:46.841Z,1008.36
2017-11-25T07:13:48.730Z,1008.37
2017-11-25T07:14:50.617Z,1008.24
2017-11-25T07:16:04.822Z,1008.18
2017-11-25T07:17:06.707Z,1008.12
2017-11-25T07:18:08.595Z,1008.09
2017-11-25T07:19:10.482Z,1008.03
2017-11-25T07:20:12.304Z,1008.04
2017-11-25T07:21:14.123Z,1008.10
2017-11-25T07:22:16.015Z,1008.20
2017-11-25T07:23:17.901Z,1008.24
2017-11-25T07:24:19.787Z,1008.27
2017-11-25T07:25:33.939Z,1008.31
2017-11-25T07:26:35.820Z,1008.33
2017-11-25T07:27:37.708Z,1008.34
2017-11-25T07:28:39.592Z,1008.32
2017-11-25T07:29:41.417Z,1008.30
2017-11-25T07:30:43.851Z,1008.32
2017-11-25T07:31:45.737Z,1008.32
2017-11-25T07:32:47.627Z,1008.18
2017-11-25T07:33:49.512Z,1008.25
2017-11-25T07:35:03.663Z,1008.17
2017-11-25T07:36:05.547Z,1008.22
2017-11-25T07:37:07.434Z,1008.16
2017-11-25T07:38:09.323Z,1008.20
2017-11-25T07:39:11.347Z,1008.20
2017-11-25T07:40:13.172Z,1008.24
2017-11-25T07:41:15.058Z,1008.26
2017-11-25T07:42:16.945Z,1008.17
2017-11-25T07:43:18.830Z,1008.19
2017-11-25T07:44:33.021Z,1008.12
2017-11-25T07:45:34.910Z,1008.09
2017-11-25T07:46:36.795Z,1008.11
2017-11-25T07:47:38.683Z,1008.21
2017-11-25T07:48:40.520Z,1008.12
2017-11-25T07:49:42.342Z,1008.12
2017-11-25T07:50:44.272Z,1008.19
2017-11-25T07:51:46.217Z,1008.07
2017-11-25T07:52:48.101Z,1008.08
2017-11-25T07:54:02.267Z,1008.03
2017-11-25T07:55:04.152Z,1008.01
2017-11-25T07:56:06.104Z,1007.90
2017-11-25T07:57:07.960Z,1007.80
2017-11-25T07:58:09.785Z,1007.82
2017-11-25T07:59:11.606Z,1007.77
2017-11-25T08:00:13.493Z,1007.75
2017-11-25T08:01:15.406Z,1007.65
2017-11-25T08:02:17.267Z,1007.58
2017-11-25T08:03:31.425Z,1007.50
2017-11-25T08:04:33.309Z,1007.47
2017-11-25T08:05:35.197Z,1007.42
2017-11-25T08:06:37.085Z,1007.36
2017-11-25T08:07:38.911Z,1007.29
2017-11-25T08:08:40.738Z,1007.28
2017-11-25T08:09:42.662Z,1007.32
2017-11-25T08:10:44.547Z,1007.32
2017-11-25T08:11:46.437Z,1007.29
2017-11-25T08:13:00.643Z,1007.31
2017-11-25T08:14:02.531Z,1007.27
2017-11-25T08:15:04.419Z,1007.27
2017-11-25T08:16:06.307Z,1007.29
2017-11-25T08:17:08.134Z,1007.29
2017-11-25T08:18:09.959Z,1007.27
2017-11-25T08:19:11.851Z,1007.31
2017-11-25T08:20:13.743Z,1007.26
2017-11-25T08:21:15.631Z,1007.30
2017-11-25T08:22:29.791Z,1007.30
2017-11-25T08:23:31.677Z,1007.29
2017-11-25T08:24:33.563Z,1007.29
2017-11-25T08:25:35.455Z,1007.28
2017-11-25T08:26:37.280Z,1007.34
2017-11-25T08:27:39.105Z,1007.40
2017-11-25T08:28:40.995Z,1007.32
2017-11-25T08:29:42.885Z,1007.34
2017-11-25T08:30:44.771Z,1007.35
2017-11-25T08:31:58.930Z,1007.41
2017-11-25T08:33:00.820Z,1007.37
2017-11-25T08:34:02.710Z,1007.38
2017-11-25T08:35:04.803Z,1007.39
2017-11-25T08:36:06.632Z,1007.37
2017-11-25T08:37:08.453Z,1007.44
2017-11-25T08:38:10.345Z,1007.42
2017-11-25T08:39:12.235Z,1007.38
2017-11-25T08:40:14.120Z,1007.35
2017-11-25T08:41:28.279Z,1007.31
2017-11-25T08:42:30.166Z,1007.28
2017-11-25T08:43:32.060Z,1007.26
2017-11-25T08:44:33.951Z,1007.24
2017-11-25T08:45:35.776Z,1007.19
2017-11-25T08:46:37.604Z,1007.18
2017-11-25T08:47:39.491Z,1007.11
2017-11-25T08:48:41.384Z,1007.00
2017-11-25T08:49:43.269Z,1006.99
2017-11-25T08:50:57.428Z,1006.97
2017-11-25T08:51:59.317Z,1006.99
2017-11-25T08:53:01.206Z,1007.04
2017-11-25T08:54:03.096Z,1007.00
2017-11-25T08:55:04.933Z,1006.98
2017-11-25T08:56:06.744Z,1006.94
2017-11-25T08:57:08.638Z,1006.96
2017-11-25T08:58:10.529Z,1006.90
2017-11-25T08:59:12.419Z,1006.83
2017-11-25T09:00:26.577Z,1006.72
2017-11-25T09:01:28.465Z,1006.78
2017-11-25T09:02:30.356Z,1006.82
2017-11-25T09:03:32.244Z,1006.90
2017-11-25T09:04:34.070Z,1006.87
2017-11-25T09:05:35.893Z,1006.97
2017-11-25T09:06:37.782Z,1006.99
2017-11-25T09:07:39.691Z,1007.02
2017-11-25T09:08:41.558Z,1007.02
2017-11-25T09:09:55.716Z,1007.07
2017-11-25T09:10:57.613Z,1007.07
2017-11-25T09:11:59.501Z,1007.00
2017-11-25T09:13:01.387Z,1006.98
2017-11-25T09:14:03.208Z,1006.99
2017-11-25T09:15:05.036Z,1007.04
2017-11-25T09:16:06.929Z,1007.12
2017-11-25T09:17:08.811Z,1007.04
2017-11-25T09:18:10.694Z,1006.91
2017-11-25T09:19:24.851Z,1006.85
2017-11-25T09:20:26.734Z,1006.61
2017-11-25T09:21:28.622Z,1006.60
2017-11-25T09:22:30.504Z,1006.69
2017-11-25T09:23:32.336Z,1006.80
2017-11-25T09:24:34.152Z,1006.84
2017-11-25T09:25:36.049Z,1006.92
2017-11-25T09:26:37.942Z,1006.98
2017-11-25T09:27:39.948Z,1007.06
2017-11-25T09:28:54.171Z,1007.10
2017-11-25T09:29:56.055Z,1007.06
2017-11-25T09:30:58.289Z,1007.02
2017-11-25T09:32:00.142Z,1007.01
2017-11-25T09:33:01.996Z,1007.01
2017-11-25T09:34:03.819Z,1006.94
2017-11-25T09:35:05.710Z,1006.92
2017-11-25T09:36:07.599Z,1006.85
2017-11-25T09:37:09.491Z,1006.81
2017-11-25T09:38:23.722Z,1006.66
2017-11-25T09:39:25.999Z,1006.63
2017-11-25T09:40:28.036Z,1006.53
2017-11-25T09:41:30.019Z,1006.50
2017-11-25T09:42:32.377Z,1006.52
2017-11-25T09:43:34.173Z,1006.43
2017-11-25T09:44:36.057Z,1006.49
2017-11-25T09:45:37.956Z,1006.46
2017-11-25T09:46:39.842Z,1006.43
2017-11-25T09:47:54.005Z,1006.34
2017-11-25T09:48:55.904Z,1006.33
2017-11-25T09:49:57.793Z,1006.34
2017-11-25T09:50:59.687Z,1006.32
2017-11-25T09:52:01.519Z,1006.36
2017-11-25T09:53:03.360Z,1006.41
2017-11-25T09:54:05.279Z,1006.48
2017-11-25T09:55:07.228Z,1006.42
2017-11-25T09:56:09.196Z,1006.52
2017-11-25T09:57:23.352Z,1006.53
2017-11-25T09:58:25.242Z,1006.52
2017-11-25T09:59:27.128Z,1006.55
2017-11-25T10:00:29.024Z,1006.49
2017-11-25T10:01:30.845Z,1006.40
2017-11-25T10:02:32.663Z,1006.28
2017-11-25T10:03:34.548Z,1006.21
2017-11-25T10:04:36.437Z,1006.19
2017-11-25T10:05:38.328Z,1006.15
2017-11-25T10:06:52.484Z,1006.19
2017-11-25T10:07:54.382Z,1006.24
2017-11-25T10:08:56.474Z,1006.24
2017-11-25T10:09:58.364Z,1006.22
2017-11-25T10:11:00.189Z,1006.22
2017-11-25T10:12:02.066Z,1006.27
2017-11-25T10:13:03.889Z,1006.31
2017-11-25T10:14:05.714Z,1006.30
2017-11-25T10:15:07.547Z,1006.27
2017-11-25T10:16:21.704Z,1006.20
2017-11-25T10:17:23.588Z,1006.21
2017-11-25T10:18:25.780Z,1006.15
2017-11-25T10:19:27.632Z,1006.18
2017-11-25T10:20:29.475Z,1006.30
2017-11-25T10:21:31.281Z,1006.35
2017-11-25T10:22:33.171Z,1006.31
2017-11-25T10:23:35.064Z,1006.44
2017-11-25T10:24:36.949Z,1006.36
2017-11-25T10:25:51.109Z,1006.38
2017-11-25T10:26:53.000Z,1006.39
2017-11-25T10:27:54.983Z,1006.31
2017-11-25T10:28:56.963Z,1006.29
2017-11-25T10:29:58.805Z,1006.34
2017-11-25T10:31:00.823Z,1006.24
2017-11-25T10:32:02.960Z,1006.29
2017-11-25T10:33:04.943Z,1006.27
2017-11-25T10:34:06.901Z,1006.30
2017-11-25T10:35:21.059Z,1006.23
2017-11-25T10:36:22.950Z,1006.25
2017-11-25T10:37:24.834Z,1006.27
2017-11-25T10:38:26.727Z,1006.22
2017-11-25T10:39:28.562Z,1006.28
2017-11-25T10:40:30.389Z,1006.32
2017-11-25T10:41:32.279Z,1006.37
2017-11-25T10:42:34.169Z,1006.33
2017-11-25T10:43:36.058Z,1006.43
2017-11-25T10:44:50.269Z,1006.33
2017-11-25T10:45:52.261Z,1006.29
2017-11-25T10:46:54.154Z,1006.42
2017-11-25T10:47:56.044Z,1006.36
2017-11-25T10:48:57.966Z,1006.43
2017-11-25T10:49:59.756Z,1006.50
2017-11-25T10:51:01.648Z,1006.46
2017-11-25T10:52:03.546Z,1006.47
2017-11-25T10:53:05.472Z,1006.52
2017-11-25T10:54:19.637Z,1006.44
2017-11-25T10:55:21.530Z,1006.47
2017-11-25T10:56:23.423Z,1006.52
2017-11-25T10:57:25.317Z,1006.53
2017-11-25T10:58:27.136Z,1006.62
2017-11-25T10:59:28.970Z,1006.59
2017-11-25T11:00:30.856Z,1006.54
2017-11-25T11:01:32.746Z,1006.60
2017-11-25T11:02:34.657Z,1006.67
2017-11-25T11:03:48.865Z,1006.55
2017-11-25T11:04:50.785Z,1006.50
2017-11-25T11:05:52.752Z,1006.43
2017-11-25T11:06:54.638Z,1006.40
2017-11-25T11:07:56.470Z,1006.40
2017-11-25T11:08:58.301Z,1006.30
2017-11-25T11:10:00.192Z,1006.37
2017-11-25T11:11:02.080Z,1006.31
2017-11-25T11:12:03.967Z,1006.33
2017-11-25T11:13:18.117Z,1006.26
2017-11-25T11:14:20.007Z,1006.19
2017-11-25T11:15:21.941Z,1006.25
2017-11-25T11:16:23.857Z,1006.26
2017-11-25T11:17:25.681Z,1006.34
2017-11-25T11:18:27.501Z,1006.30
2017-11-25T11:19:29.389Z,1006.42
2017-11-25T11:20:31.271Z,1006.40
2017-11-25T11:21:33.158Z,1006.50
2017-11-25T11:22:47.316Z,1006.54
2017-11-25T11:23:49.201Z,1006.61
2017-11-25T11:24:51.088Z,1006.67
2017-11-25T11:25:52.969Z,1006.73
2017-11-25T11:26:54.791Z,1006.73
2017-11-25T11:27:56.616Z,1006.78
2017-11-25T11:28:58.504Z,1006.86
2017-11-25T11:30:00.418Z,1006.83
2017-11-25T11:31:02.327Z,1006.89
2017-11-25T11:32:16.524Z,1006.91
2017-11-25T11:33:18.427Z,1006.94
2017-11-25T11:34:20.313Z,1006.90
2017-11-25T11:35:22.201Z,1006.86
2017-11-25T11:36:24.032Z,1006.91
2017-11-25T11:37:25.934Z,1006.93
2017-11-25T11:38:27.868Z,1006.95
2017-11-25T11:39:29.753Z,1006.98
2017-11-25T11:40:31.642Z,1006.97
2017-11-25T11:41:45.788Z,1006.94
2017-11-25T11:42:47.672Z,1006.94
2017-11-25T11:43:49.557Z,1006.94
2017-11-25T11:44:51.513Z,1006.90
2017-11-25T11:45:53.325Z,1006.95
2017-11-25T11:46:55.147Z,1006.92
2017-11-25T11:47:57.042Z,1006.92
2017-11-25T11:48:58.925Z,1006.91
2017-11-25T11:50:00.808Z,1006.91
2017-11-25T11:51:14.966Z,1006.90
2017-11-25T11:52:16.864Z,1006.94
2017-11-25T11:53:18.759Z,1006.98
2017-11-25T11:54:20.716Z,1007.04
2017-11-25T11:55:22.570Z,1007.02
2017-11-25T11:56:24.388Z,1007.04
2017-11-25T11:57:26.275Z,1007.03
2017-11-25T11:58:28.159Z,1006.98
2017-11-25T11:59:30.046Z,1006.97
2017-11-25T12:00:44.203Z,1006.95
2017-11-25T12:01:46.088Z,1006.95
2017-11-25T12:02:48.031Z,1006.93
2017-11-25T12:03:49.938Z,1006.93
2017-11-25T12:04:51.761Z,1006.86
2017-11-25T12:05:53.604Z,1006.89
2017-11-25T12:06:55.502Z,1006.92
2017-11-25T12:07:57.393Z,1006.87
2017-11-25T12:08:59.273Z,1006.85
2017-11-25T12:10:13.434Z,1006.82
2017-11-25T12:11:15.318Z,1006.77
2017-11-25T12:12:17.216Z,1006.74
2017-11-25T12:13:19.129Z,1006.74
2017-11-25T12:14:21.020Z,1006.70
2017-11-25T12:15:22.835Z,1006.75
2017-11-25T12:16:24.722Z,1006.76
2017-11-25T12:17:26.610Z,1006.73
2017-11-25T12:18:28.497Z,1006.71
2017-11-25T12:19:42.651Z,1006.76
2017-11-25T12:20:44.565Z,1006.77
2017-11-25T12:21:46.479Z,1006.80
2017-11-25T12:22:48.364Z,1006.77
2017-11-25T12:23:50.187Z,1006.77
2017-11-25T12:24:52.005Z,1006.75
2017-11-25T12:25:53.893Z,1006.77
2017-11-25T12:26:55.791Z,1006.81
2017-11-25T12:27:57.681Z,1006.85
2017-11-25T12:29:11.836Z,1006.80
2017-11-25T12:30:13.719Z,1006.86
2017-11-25T12:31:15.616Z,1006.88
2017-11-25T12:32:17.505Z,1006.93
2017-11-25T12:33:19.333Z,1006.94
2017-11-25T12:34:21.213Z,1006.95
2017-11-25T12:35:23.078Z,1007.04
2017-11-25T12:36:24.963Z,1006.98
2017-11-25T12:37:26.847Z,1006.99
2017-11-25T12:38:41.020Z,1006.97
2017-11-25T12:39:42.904Z,1007.00
2017-11-25T12:40:44.789Z,1006.95
2017-11-25T12:41:46.674Z,1007.00
2017-11-25T12:42:48.504Z,1007.00
2017-11-25T12:43:50.339Z,1006.99
2017-11-25T12:44:52.278Z,1006.98